Time;durP1;ratioP1;P1;durP2;ratioP2;P2;SDS_P1;SDS_P2;PMS_P1;PMS_P2;Temp;Humidity;BMP_temperature;BMP_pressure;BME280_temperature;BME280_humidity;BME280_pressure;Samples;Min_cycle;Max_cycle;Signal;HPM_P1;HPM_P2
2020/12/06 00:01:10;;;;;;;16.77;9.73;;;3.50;99.90;;;4.25;100.00;96471.94;5068306;28;20851;-82
2020/12/06 00:03:37;;;;;;;17.63;10.93;;;3.50;99.90;;;4.27;100.00;96470.75;5061878;28;20464;-82
2020/12/06 00:06:05;;;;;;;18.33;10.30;;;3.50;99.90;;;4.22;100.00;96485.25;5061647;28;20484;-82
2020/12/06 00:08:33;;;;;;;16.80;10.40;;;3.50;99.90;;;4.18;100.00;96468.50;5068569;28;20517;-81
2020/12/06 00:11:01;;;;;;;18.33;11.20;;;3.50;99.90;;;4.15;100.00;96481.81;5066334;28;20471;-82
2020/12/06 00:13:29;;;;;;;17.63;10.50;;;3.50;99.90;;;4.18;100.00;96487.41;5066730;28;20475;-82
2020/12/06 00:15:57;;;;;;;13.30;9.47;;;3.50;99.90;;;4.20;100.00;96487.25;5066111;28;20506;-81
2020/12/06 00:18:24;;;;;;;13.60;8.80;;;3.50;99.90;;;4.21;100.00;96478.47;5064885;28;20789;-82
2020/12/06 00:20:53;;;;;;;15.60;9.67;;;3.60;99.90;;;4.18;100.00;96474.47;5067134;28;20492;-81
2020/12/06 00:23:20;;;;;;;14.47;10.00;;;3.60;99.90;;;4.13;100.00;96465.69;5064888;28;20468;-81
2020/12/06 00:25:51;;;;;;;17.20;10.40;;;3.40;99.90;;;4.15;100.00;96477.44;5065576;28;20953;-81
2020/12/06 00:28:19;;;;;;;14.83;9.57;;;3.40;99.90;;;4.12;100.00;96482.97;5068417;28;20472;-81
2020/12/06 00:30:47;;;;;;;14.27;9.83;;;3.40;99.90;;;4.11;100.00;96491.72;5068603;28;20456;-81
2020/12/06 00:33:15;;;;;;;16.63;9.80;;;3.40;99.90;;;4.07;100.00;96501.63;5065090;28;20460;-81
2020/12/06 00:35:42;;;;;;;20.30;10.67;;;3.40;99.90;;;4.08;100.00;96510.19;5061976;28;20484;-82
2020/12/06 00:38:10;;;;;;;13.60;9.60;;;3.40;99.90;;;4.12;100.00;96514.03;5066650;28;20463;-81
2020/12/06 00:40:37;;;;;;;14.37;9.97;;;3.50;99.90;;;4.14;100.00;96504.28;5067250;28;20883;-82
2020/12/06 00:43:05;;;;;;;18.23;9.97;;;3.50;99.90;;;4.12;100.00;96487.34;5067518;28;20467;-81
2020/12/06 00:45:33;;;;;;;17.67;11.13;;;3.60;99.90;;;4.07;100.00;96488.69;5064849;28;20507;-81
2020/12/06 00:48:01;;;;;;;17.47;9.10;;;3.60;99.90;;;4.04;100.00;96470.16;5068149;28;20452;-82
2020/12/06 00:50:29;;;;;;;17.10;10.23;;;3.60;99.90;;;4.01;100.00;96473.13;5062368;28;20487;-81
2020/12/06 00:52:56;;;;;;;18.90;11.37;;;3.40;99.90;;;4.05;100.00;96471.78;5064098;28;21063;-81
2020/12/06 00:55:24;;;;;;;17.33;9.77;;;3.50;99.90;;;4.12;100.00;96482.19;5064516;28;20537;-82
2020/12/06 00:57:51;;;;;;;17.53;10.03;;;3.50;99.90;;;4.01;100.00;96484.28;5065992;28;20811;-82
2020/12/06 01:00:19;;;;;;;15.90;10.60;;;3.40;99.90;;;4.03;100.00;96479.72;5066853;28;20466;-81
2020/12/06 01:02:48;;;;;;;18.53;10.90;;;3.40;99.90;;;4.01;100.00;96486.06;5065572;28;20509;-81
2020/12/06 01:05:16;;;;;;;15.43;10.10;;;3.40;99.90;;;4.03;100.00;96478.91;5062549;28;20481;-81
2020/12/06 01:07:43;;;;;;;14.97;9.73;;;3.30;99.90;;;4.07;100.00;96469.78;5065016;28;20467;-82
2020/12/06 01:10:12;;;;;;;20.47;11.50;;;3.40;99.90;;;4.11;100.00;96490.91;5067428;28;20489;-81
2020/12/06 01:12:41;;;;;;;17.80;10.80;;;3.40;99.90;;;4.05;100.00;96502.81;5066963;28;20972;-82
2020/12/06 01:15:10;;;;;;;19.67;11.53;;;3.40;99.90;;;3.99;100.00;96508.72;5063675;28;20514;-82
2020/12/06 01:17:38;;;;;;;17.97;11.00;;;3.40;99.90;;;3.96;100.00;96503.91;5065951;28;20465;-82
2020/12/06 01:20:08;;;;;;;23.60;12.53;;;3.40;99.90;;;3.92;100.00;96508.63;5064218;28;20460;-82
2020/12/06 01:22:36;;;;;;;18.63;10.73;;;3.40;99.90;;;3.92;100.00;96523.38;5066821;28;20546;-81
2020/12/06 01:25:06;;;;;;;20.10;10.70;;;3.40;99.90;;;3.90;100.00;96530.50;5064812;28;20533;-82
2020/12/06 01:27:34;;;;;;;18.90;11.47;;;3.40;99.90;;;3.90;100.00;96518.38;5067001;28;20699;-82
2020/12/06 01:30:02;;;;;;;21.90;10.40;;;3.40;99.90;;;3.89;100.00;96513.38;5065992;28;20973;-81
2020/12/06 01:32:32;;;;;;;22.00;11.27;;;3.40;99.90;;;3.92;100.00;96518.97;5065916;28;20464;-81
2020/12/06 01:35:00;;;;;;;24.93;12.30;;;3.50;99.90;;;3.95;100.00;96512.66;5065195;28;20498;-81
2020/12/06 01:37:29;;;;;;;21.83;12.57;;;3.50;99.90;;;3.91;100.00;96511.41;5064328;28;20565;-81
2020/12/06 01:39:56;;;;;;;21.07;12.33;;;3.30;99.90;;;3.89;100.00;96518.53;5066040;28;20522;-81
2020/12/06 01:42:24;;;;;;;25.83;12.10;;;3.30;99.90;;;3.92;100.00;96521.56;5065732;28;21030;-82
2020/12/06 01:44:58;;;;;;;19.97;12.10;;;3.30;99.90;;;3.92;100.00;96523.38;5066944;28;20488;-81
2020/12/06 01:47:28;;;;;;;25.20;12.63;;;3.30;99.90;;;3.89;100.00;96523.72;5064326;28;20509;-82
2020/12/06 01:49:56;;;;;;;21.53;12.00;;;3.20;99.90;;;3.93;100.00;96509.44;5065342;28;20494;-82
2020/12/06 01:52:26;;;;;;;19.60;11.63;;;3.40;99.90;;;3.97;100.00;96515.84;5063073;28;20781;-82
2020/12/06 01:54:55;;;;;;;20.63;12.17;;;3.40;99.90;;;3.99;100.00;96508.72;5065429;28;20471;-81
2020/12/06 01:57:22;;;;;;;22.37;12.67;;;3.30;99.90;;;3.98;100.00;96512.28;5064778;28;20472;-81
2020/12/06 01:59:50;;;;;;;20.77;12.20;;;3.30;99.90;;;3.97;100.00;96526.19;5064181;28;20495;-82
2020/12/06 02:02:17;;;;;;;19.37;12.27;;;3.40;99.90;;;3.98;100.00;96530.38;5063860;28;20527;-81
2020/12/06 02:04:46;;;;;;;23.73;13.30;;;3.40;99.90;;;3.96;100.00;96540.91;5063873;28;20929;-82
2020/12/06 02:07:13;;;;;;;23.97;13.83;;;3.40;99.90;;;4.00;100.00;96543.91;5065424;28;20468;-81
2020/12/06 02:09:43;;;;;;;23.93;13.27;;;3.40;99.90;;;4.04;100.00;96538.22;5064989;28;21530;-81
2020/12/06 02:12:12;;;;;;;21.30;11.47;;;3.50;99.90;;;4.01;100.00;96537.78;5065860;28;20464;-82
2020/12/06 02:14:39;;;;;;;21.20;12.50;;;3.40;99.90;;;4.04;100.00;96537.41;5058370;28;20464;-82
2020/12/06 02:17:07;;;;;;;22.67;13.27;;;3.40;99.90;;;4.04;100.00;96534.81;5064144;28;20850;-81
2020/12/06 02:19:34;;;;;;;22.03;12.70;;;3.40;99.90;;;4.03;100.00;96521.09;5065708;28;20467;-81
2020/12/06 02:22:03;;;;;;;24.03;12.90;;;3.40;99.90;;;4.07;100.00;96516.34;5062408;28;20581;-82
2020/12/06 02:24:31;;;;;;;22.03;11.80;;;3.40;99.90;;;4.07;100.00;96503.41;5065116;28;20452;-82
2020/12/06 02:26:58;;;;;;;20.53;12.00;;;3.40;99.90;;;3.98;100.00;96501.94;5063804;28;20807;-81
2020/12/06 02:29:26;;;;;;;21.00;12.17;;;3.40;99.90;;;3.95;100.00;96494.56;5064134;28;20484;-81
2020/12/06 02:31:53;;;;;;;24.30;12.60;;;3.40;99.90;;;3.99;100.00;96488.03;5065179;28;20628;-81
2020/12/06 02:34:21;;;;;;;20.57;11.73;;;3.40;99.90;;;4.00;100.00;96489.63;5064917;28;20491;-82
2020/12/06 02:36:48;;;;;;;24.03;12.70;;;3.30;99.90;;;3.82;100.00;96491.81;5066215;28;20525;-81
2020/12/06 02:39:17;;;;;;;26.00;12.90;;;3.10;99.90;;;3.90;100.00;96502.06;5064869;28;20572;-81
2020/12/06 02:41:47;;;;;;;21.17;12.07;;;3.20;99.90;;;3.96;100.00;96504.69;5061693;28;20520;-82
2020/12/06 02:44:15;;;;;;;24.10;13.97;;;3.20;99.90;;;4.03;100.00;96517.69;5064916;28;20511;-81
2020/12/06 02:46:42;;;;;;;20.20;11.93;;;3.30;99.90;;;4.01;100.00;96525.66;5067254;28;20525;-82
2020/12/06 02:49:10;;;;;;;21.87;13.27;;;3.30;99.90;;;4.06;100.00;96519.94;5065950;28;20467;-81
2020/12/06 02:51:38;;;;;;;23.80;13.70;;;3.50;99.90;;;4.07;100.00;96514.56;5069338;28;20964;-81
2020/12/06 02:54:07;;;;;;;21.90;12.60;;;3.50;99.90;;;4.01;100.00;96509.34;5062214;28;20463;-81
2020/12/06 02:56:42;;;;;;;22.87;12.60;;;3.40;99.90;;;4.03;100.00;96515.09;5068034;28;20503;-81
2020/12/06 02:59:09;;;;;;;24.67;12.73;;;3.50;99.90;;;4.05;100.00;96518.31;5065775;28;20483;-81
2020/12/06 03:01:37;;;;;;;22.80;11.90;;;3.50;99.90;;;4.02;100.00;96516.13;5068439;28;20495;-81
2020/12/06 03:04:04;;;;;;;24.30;12.10;;;3.40;99.90;;;4.08;100.00;96517.97;5066794;28;20455;-81
2020/12/06 03:06:32;;;;;;;19.83;11.70;;;3.40;99.90;;;4.09;100.00;96504.06;5064084;28;20497;-81
2020/12/06 03:08:59;;;;;;;24.90;12.80;;;3.50;99.90;;;4.04;100.00;96485.69;5067700;28;20525;-81
2020/12/06 03:11:27;;;;;;;19.70;12.50;;;3.40;99.90;;;4.09;100.00;96479.97;5070341;28;20445;-81
2020/12/06 03:13:56;;;;;;;22.40;12.90;;;3.40;99.90;;;4.09;100.00;96485.94;5067987;28;20975;-81
2020/12/06 03:16:24;;;;;;;23.60;13.37;;;3.40;99.90;;;4.05;100.00;96489.88;5066739;28;20492;-81
2020/12/06 03:18:51;;;;;;;22.37;11.90;;;3.40;99.90;;;4.00;100.00;96490.44;5068758;28;20468;-81
2020/12/06 03:21:19;;;;;;;26.10;12.83;;;3.40;99.90;;;4.09;100.00;96482.56;5067978;28;20537;-81
2020/12/06 03:23:46;;;;;;;23.87;12.00;;;3.40;99.90;;;4.03;100.00;96468.56;5068826;28;20498;-82
2020/12/06 03:26:14;;;;;;;22.13;12.27;;;3.30;99.90;;;4.02;100.00;96461.81;5065809;28;20830;-81
2020/12/06 03:28:41;;;;;;;24.13;13.03;;;3.40;99.90;;;4.06;100.00;96465.63;5068603;28;20753;-81
2020/12/06 03:31:09;;;;;;;16.60;10.57;;;3.60;99.90;;;4.04;100.00;96460.63;5068852;28;20452;-82
2020/12/06 03:33:37;;;;;;;19.67;11.57;;;3.60;99.90;;;4.08;100.00;96471.41;5067321;28;20984;-81
2020/12/06 03:36:05;;;;;;;20.13;11.03;;;3.60;99.90;;;4.01;100.00;96466.19;5067743;28;20459;-81
2020/12/06 03:38:33;;;;;;;22.37;12.50;;;3.40;99.90;;;4.05;100.00;96470.00;5068736;28;20456;-81
2020/12/06 03:41:00;;;;;;;21.67;11.90;;;3.50;99.90;;;4.09;100.00;96472.22;5066876;28;20460;-81
2020/12/06 03:43:28;;;;;;;24.03;11.70;;;3.50;99.90;;;4.11;100.00;96480.56;5067877;28;20809;-81
2020/12/06 03:45:55;;;;;;;20.57;12.00;;;3.50;99.90;;;4.11;100.00;96473.63;5066754;28;20472;-81
2020/12/06 03:48:23;;;;;;;21.30;11.60;;;3.50;99.90;;;4.13;100.00;96463.88;5065096;28;20492;-81
2020/12/06 03:50:51;;;;;;;20.30;11.70;;;3.50;99.90;;;4.14;100.00;96464.69;5063389;28;20468;-81
2020/12/06 03:53:18;;;;;;;23.73;12.30;;;3.40;99.90;;;4.17;100.00;96457.34;5068346;28;20816;-81
2020/12/06 03:55:46;;;;;;;19.20;11.67;;;3.50;99.90;;;4.16;100.00;96470.47;5066749;28;20464;-82
2020/12/06 03:58:13;;;;;;;25.73;11.47;;;3.50;99.90;;;4.16;100.00;96483.41;5068355;28;20456;-81
2020/12/06 04:00:41;;;;;;;19.20;11.03;;;3.60;99.90;;;4.04;100.00;96478.72;5066660;28;20468;-81
2020/12/06 04:03:08;;;;;;;15.40;10.37;;;3.50;99.90;;;3.93;100.00;96478.41;5066801;28;20499;-81
2020/12/06 04:05:37;;;;;;;20.43;10.50;;;3.30;99.90;;;3.92;100.00;96466.50;5065897;28;20460;-81
2020/12/06 04:08:04;;;;;;;19.57;10.27;;;3.20;99.90;;;3.98;100.00;96455.41;5067916;28;20540;-81
2020/12/06 04:10:32;;;;;;;20.77;11.53;;;3.20;99.90;;;4.01;100.00;96442.09;5066799;28;20899;-81
2020/12/06 04:12:59;;;;;;;22.17;10.37;;;3.30;99.90;;;4.05;100.00;96440.75;5065046;28;20468;-81
2020/12/06 04:15:27;;;;;;;17.10;9.57;;;3.40;99.90;;;4.07;100.00;96438.75;5064665;28;21023;-82
2020/12/06 04:17:54;;;;;;;18.70;10.83;;;3.50;99.90;;;3.99;100.00;96437.09;5066354;28;20467;-81
2020/12/06 04:20:22;;;;;;;19.93;10.90;;;3.30;99.90;;;3.97;100.00;96433.09;5066317;28;20472;-81
2020/12/06 04:22:50;;;;;;;26.50;10.63;;;3.30;99.90;;;4.01;100.00;96435.16;5063190;28;20571;-81
2020/12/06 04:25:18;;;;;;;19.47;10.70;;;3.30;99.90;;;4.07;100.00;96434.41;5068296;28;20472;-81
2020/12/06 04:27:45;;;;;;;20.80;10.00;;;3.50;99.90;;;4.07;100.00;96438.75;5067104;28;21164;-82
2020/12/06 04:30:13;;;;;;;20.80;9.83;;;3.40;99.90;;;3.99;100.00;96438.91;5067667;28;20533;-81
2020/12/06 04:32:40;;;;;;;19.97;10.20;;;3.30;99.90;;;3.96;100.00;96453.00;5067137;28;20517;-81
2020/12/06 04:35:08;;;;;;;15.87;9.33;;;3.20;99.90;;;4.03;100.00;96450.47;5064826;28;20492;-81
2020/12/06 04:37:35;;;;;;;21.03;11.27;;;3.30;99.90;;;4.04;100.00;96449.47;5066289;28;20517;-81
2020/12/06 04:40:05;;;;;;;18.17;10.47;;;3.30;99.90;;;4.03;100.00;96453.84;5065983;28;20509;-82
2020/12/06 04:42:33;;;;;;;17.40;9.97;;;3.30;99.90;;;4.07;100.00;96449.09;5066416;28;20565;-81
2020/12/06 04:45:01;;;;;;;21.80;10.80;;;3.30;99.90;;;4.02;100.00;96446.28;5066626;28;20480;-82
2020/12/06 04:47:56;;;;;;;18.90;10.50;;;3.20;99.90;;;4.02;100.00;96449.69;5063528;28;20952;-81
2020/12/06 04:50:32;;;;;;;18.63;9.33;;;3.30;99.90;;;4.03;100.00;96455.63;5065244;28;20578;-81
2020/12/06 04:53:03;;;;;;;18.40;10.43;;;3.30;99.90;;;4.05;100.00;96453.69;5067700;28;20459;-81
2020/12/06 04:55:33;;;;;;;17.47;9.63;;;3.30;99.90;;;4.09;100.00;96452.31;5067653;28;20510;-81
2020/12/06 04:58:04;;;;;;;28.13;10.17;;;3.40;99.90;;;4.08;100.00;96448.13;5067494;28;20460;-81
2020/12/06 05:00:34;;;;;;;15.77;9.40;;;3.40;99.90;;;4.07;100.00;96446.53;5066117;28;20539;-81
2020/12/06 05:03:07;;;;;;;15.00;8.33;;;3.30;99.90;;;4.04;100.00;96439.13;5066739;28;20557;-81
2020/12/06 05:05:38;;;;;;;22.90;12.27;;;3.40;99.90;;;4.05;100.00;96435.56;5063051;28;20465;-82
2020/12/06 05:08:10;;;;;;;20.87;10.57;;;3.30;99.90;;;4.11;100.00;96440.00;5067549;28;20473;-81
2020/12/06 05:10:41;;;;;;;19.50;10.60;;;3.30;99.90;;;4.04;100.00;96429.59;5065042;28;20565;-81
2020/12/06 05:13:09;;;;;;;19.07;10.03;;;3.30;99.90;;;4.04;100.00;96426.22;5064008;28;20460;-81
2020/12/06 05:15:37;;;;;;;18.27;11.07;;;3.30;99.90;;;4.03;100.00;96416.84;5064941;28;20987;-81
2020/12/06 05:18:05;;;;;;;16.27;10.33;;;3.30;99.90;;;4.04;100.00;96423.63;5066371;28;20464;-81
2020/12/06 05:20:34;;;;;;;18.27;9.57;;;3.30;99.90;;;3.93;100.00;96437.03;5066143;28;20517;-81
2020/12/06 05:23:02;;;;;;;20.00;10.30;;;3.20;99.90;;;3.92;100.00;96430.28;5065340;28;20611;-81
2020/12/06 05:25:30;;;;;;;18.47;10.33;;;3.10;99.90;;;3.99;100.00;96420.81;5066900;28;20880;-81
2020/12/06 05:27:58;;;;;;;17.03;9.80;;;3.30;99.90;;;4.03;100.00;96427.19;5065120;28;20471;-81
2020/12/06 05:30:26;;;;;;;23.83;11.43;;;3.30;99.90;;;4.02;100.00;96430.78;5063897;28;20467;-81
2020/12/06 05:32:54;;;;;;;20.20;10.13;;;3.30;99.90;;;4.00;100.00;96417.22;5064185;28;20464;-81
2020/12/06 05:35:21;;;;;;;21.33;10.30;;;3.20;99.90;;;4.01;100.00;96418.81;5065332;28;20549;-80
2020/12/06 05:37:53;;;;;;;20.03;10.17;;;3.30;99.90;;;3.99;100.00;96424.16;5067820;28;20539;-81
2020/12/06 05:40:21;;;;;;;19.60;10.83;;;3.30;99.90;;;3.95;100.00;96419.56;5065605;28;20493;-81
2020/12/06 05:42:48;;;;;;;21.53;10.47;;;3.20;99.90;;;3.94;100.00;96418.78;5065995;28;20511;-81
2020/12/06 05:45:19;;;;;;;17.80;10.67;;;3.20;99.90;;;3.98;100.00;96426.97;5061639;28;20521;-81
2020/12/06 05:47:47;;;;;;;20.47;10.73;;;3.20;99.90;;;4.00;100.00;96427.56;5065960;28;20487;-81
2020/12/06 05:50:15;;;;;;;21.70;10.30;;;3.20;99.90;;;3.99;100.00;96425.97;5065276;28;20456;-81
2020/12/06 05:52:42;;;;;;;19.13;10.70;;;3.20;99.90;;;4.00;100.00;96422.38;5063954;28;20472;-81
2020/12/06 05:55:10;;;;;;;19.10;10.67;;;3.20;99.90;;;3.93;100.00;96411.19;5065889;28;20960;-81
2020/12/06 05:57:45;;;;;;;19.27;10.97;;;3.20;99.90;;;3.98;100.00;96408.88;5064789;28;20464;-80
2020/12/06 06:00:14;;;;;;;19.33;10.03;;;3.20;99.90;;;3.92;100.00;96404.44;5066165;28;20530;-81
2020/12/06 06:02:44;;;;;;;18.80;10.67;;;3.20;99.90;;;3.91;100.00;96408.00;5065714;28;21000;-81
2020/12/06 06:05:19;;;;;;;16.23;9.30;;;3.20;99.90;;;3.93;100.00;96403.44;5064920;28;20460;-81
2020/12/06 06:07:49;;;;;;;17.03;8.50;;;3.20;99.90;;;3.97;100.00;96404.66;5063465;28;20529;-81
2020/12/06 06:10:19;;;;;;;16.60;9.10;;;3.20;99.90;;;3.92;100.00;96405.22;5061144;28;20463;-81
2020/12/06 06:12:53;;;;;;;16.20;8.60;;;3.20;99.90;;;3.95;100.00;96399.69;5066219;28;20602;-81
2020/12/06 06:15:23;;;;;;;18.93;8.67;;;3.10;99.90;;;3.99;100.00;96407.88;5063277;28;20460;-81
2020/12/06 06:17:54;;;;;;;14.23;8.13;;;3.20;99.90;;;4.05;100.00;96400.19;5066790;28;20460;-81
2020/12/06 06:20:22;;;;;;;18.00;9.20;;;3.30;99.90;;;4.05;100.00;96401.97;5062769;28;20533;-81
2020/12/06 06:22:53;;;;;;;17.20;8.53;;;3.30;99.90;;;3.98;100.00;96401.91;5063977;28;20492;-81
2020/12/06 06:25:21;;;;;;;17.57;9.13;;;3.20;99.90;;;4.00;100.00;96396.53;5064222;28;20464;-81
2020/12/06 06:27:50;;;;;;;13.07;8.10;;;3.20;99.90;;;3.99;100.00;96387.19;5065696;28;20704;-81
2020/12/06 06:30:18;;;;;;;15.87;8.70;;;3.30;99.90;;;3.92;100.00;96386.34;5061708;28;20510;-81
2020/12/06 06:32:45;;;;;;;14.27;8.70;;;3.20;99.90;;;3.96;100.00;96384.97;5065030;28;20521;-81
2020/12/06 06:35:14;;;;;;;17.13;8.50;;;3.20;99.90;;;3.87;100.00;96399.00;5062034;28;20833;-81
2020/12/06 06:37:42;;;;;;;19.50;8.70;;;3.10;99.90;;;3.89;100.00;96399.63;5065169;28;20462;-81
2020/12/06 06:40:10;;;;;;;13.30;8.10;;;3.20;99.90;;;3.87;100.00;96402.41;5065841;28;20456;-81
2020/12/06 06:42:38;;;;;;;15.60;7.30;;;3.10;99.90;;;3.88;100.00;96395.44;5063801;28;20487;-82
2020/12/06 06:45:09;;;;;;;14.90;8.33;;;3.10;99.90;;;3.93;100.00;96398.25;5061528;28;20493;-81
2020/12/06 06:47:38;;;;;;;16.40;7.63;;;3.20;99.90;;;3.98;100.00;96393.34;5063578;28;20482;-81
2020/12/06 06:50:08;;;;;;;14.87;7.60;;;3.20;99.90;;;3.98;100.00;96391.56;5065236;28;20464;-81
2020/12/06 06:52:40;;;;;;;11.93;7.17;;;3.20;99.90;;;4.02;100.00;96395.38;5066946;28;20448;-81
2020/12/06 06:55:09;;;;;;;15.43;8.63;;;3.30;99.90;;;4.03;100.00;96398.75;5060091;28;20460;-81
2020/12/06 06:57:41;;;;;;;11.93;6.90;;;3.30;99.90;;;4.02;100.00;96415.25;5063335;28;20464;-81
2020/12/06 07:00:08;;;;;;;12.90;7.23;;;3.30;99.90;;;3.96;100.00;96410.81;5065811;28;20444;-81
2020/12/06 07:02:38;;;;;;;14.93;7.77;;;3.20;99.90;;;3.88;100.00;96406.59;5064665;28;20499;-81
2020/12/06 07:05:08;;;;;;;15.00;8.03;;;3.10;99.90;;;3.91;100.00;96408.00;5066696;28;20468;-81
2020/12/06 07:07:48;;;;;;;15.73;8.20;;;3.10;99.90;;;3.90;100.00;96407.19;5063118;28;20547;-81
2020/12/06 07:10:19;;;;;;;14.60;7.47;;;3.10;99.90;;;3.89;100.00;96407.38;5063673;28;20965;-81
2020/12/06 07:12:51;;;;;;;18.17;8.80;;;3.10;99.90;;;3.93;100.00;96408.59;5063825;28;20471;-81
2020/12/06 07:15:21;;;;;;;15.70;8.70;;;3.20;99.90;;;3.91;100.00;96408.00;5064765;28;20460;-81
2020/12/06 07:17:50;;;;;;;19.13;8.90;;;3.20;99.90;;;3.92;100.00;96412.19;5064898;28;20874;-81
2020/12/06 07:20:19;;;;;;;16.20;8.73;;;3.30;99.90;;;3.87;100.00;96417.91;5063209;28;20906;-81
2020/12/06 07:22:49;;;;;;;17.40;8.53;;;3.20;99.90;;;3.86;100.00;96418.88;5063270;28;20500;-81
2020/12/06 07:25:18;;;;;;;13.60;8.17;;;3.20;99.90;;;3.88;100.00;96422.09;5062872;28;20464;-87
2020/12/06 07:27:47;;;;;;;14.07;8.67;;;3.20;99.90;;;3.93;100.00;96432.69;5060524;28;20460;-82
2020/12/06 07:30:17;;;;;;;17.20;7.20;;;3.30;99.90;;;3.97;100.00;96418.41;5060775;28;20465;-81
2020/12/06 07:32:45;;;;;;;11.67;7.70;;;3.30;99.90;;;4.01;100.00;96424.81;5066367;28;20451;-81
2020/12/06 07:35:15;;;;;;;18.23;9.03;;;3.30;99.90;;;4.02;100.00;96423.81;5065610;28;21011;-81
2020/12/06 07:37:45;;;;;;;13.37;7.13;;;3.30;99.90;;;3.99;100.00;96418.22;5068843;28;20518;-81
2020/12/06 07:40:14;;;;;;;15.20;9.10;;;3.30;99.90;;;4.02;100.00;96420.44;5069522;28;20452;-81
2020/12/06 07:42:41;;;;;;;16.13;8.07;;;3.30;99.90;;;4.00;100.00;96427.56;5064891;28;20568;-81
2020/12/06 07:45:09;;;;;;;18.60;9.30;;;3.30;99.90;;;4.01;100.00;96424.00;5068385;28;20484;-81
2020/12/06 07:47:36;;;;;;;18.47;8.80;;;3.30;99.90;;;4.01;100.00;96426.59;5062866;28;20670;-81
2020/12/06 07:50:07;;;;;;;15.13;8.47;;;3.30;99.90;;;3.99;100.00;96424.16;5063549;28;20472;-80
2020/12/06 07:52:37;;;;;;;13.90;8.40;;;3.30;99.90;;;4.00;100.00;96427.56;5063392;28;20468;-81
2020/12/06 07:55:08;;;;;;;13.37;8.33;;;3.20;99.90;;;4.05;100.00;96430.41;5066054;28;20490;-81
2020/12/06 07:57:53;;;;;;;15.53;8.87;;;3.30;99.90;;;4.09;100.00;96421.28;5066094;28;20471;-85
2020/12/06 08:00:23;;;;;;;14.10;8.23;;;3.40;99.90;;;4.10;100.00;96425.47;5068311;28;20471;-81
2020/12/06 08:02:57;;;;;;;18.83;8.17;;;3.40;99.90;;;4.10;100.00;96422.06;5068894;28;20499;-81
2020/12/06 08:05:33;;;;;;;17.00;9.37;;;3.40;99.90;;;4.04;100.00;96428.78;5069033;28;20455;-81
2020/12/06 08:08:07;;;;;;;20.40;8.70;;;3.30;99.90;;;4.05;100.00;96422.66;5069101;28;20505;-81
2020/12/06 08:10:36;;;;;;;19.30;10.13;;;3.30;99.90;;;4.05;100.00;96420.88;5068297;28;20454;-81
2020/12/06 08:13:10;;;;;;;17.37;9.90;;;3.30;99.90;;;4.11;100.00;96424.47;5065114;28;20460;-80
2020/12/06 08:15:38;;;;;;;17.67;9.73;;;3.40;99.90;;;4.15;100.00;96430.88;5066032;28;20500;-81
2020/12/06 08:18:12;;;;;;;17.93;8.97;;;3.50;99.90;;;4.19;100.00;96426.13;5064894;28;20460;-80
2020/12/06 08:20:40;;;;;;;14.67;8.67;;;3.50;99.90;;;4.23;100.00;96427.38;5063908;28;20494;-81
2020/12/06 08:23:07;;;;;;;20.47;8.50;;;3.50;99.90;;;4.19;100.00;96428.72;5067019;28;20499;-81
2020/12/06 08:25:47;;;;;;;13.83;8.77;;;3.50;99.90;;;4.20;100.00;96422.56;5065293;28;20471;-81
2020/12/06 08:28:20;;;;;;;16.80;9.57;;;3.50;99.90;;;4.23;100.00;96433.34;5063352;28;20470;-80
2020/12/06 08:30:48;;;;;;;15.03;8.80;;;3.50;99.90;;;4.28;100.00;96428.41;5062751;28;20461;-80
2020/12/06 08:33:23;;;;;;;14.73;8.70;;;3.60;99.90;;;4.26;100.00;96427.78;5061344;28;20463;-81
2020/12/06 08:35:53;;;;;;;18.90;10.10;;;3.50;99.90;;;4.30;100.00;96426.44;5061765;28;20525;-80
2020/12/06 08:38:23;;;;;;;18.63;9.83;;;3.60;99.90;;;4.32;100.00;96427.03;5065601;28;20460;-80
2020/12/06 08:41:04;;;;;;;21.47;10.77;;;3.70;99.90;;;4.35;100.00;96426.66;5063845;28;20472;-80
2020/12/06 08:43:50;;;;;;;22.07;10.10;;;3.70;99.90;;;4.37;100.00;96434.25;5062998;28;20504;-80
2020/12/06 08:46:20;;;;;;;23.47;10.20;;;3.70;99.90;;;4.37;100.00;96431.66;5063659;28;20819;-81
2020/12/06 08:48:50;;;;;;;16.83;9.00;;;3.70;99.90;;;4.41;100.00;96438.84;5064167;28;20464;-80
2020/12/06 08:51:27;;;;;;;17.33;8.93;;;3.80;99.90;;;4.45;100.00;96432.31;5064683;28;20973;-80
2020/12/06 08:53:55;;;;;;;21.73;10.50;;;3.90;99.90;;;4.46;100.00;96428.72;5063798;28;20455;-81
2020/12/06 08:56:33;;;;;;;15.93;9.30;;;4.00;99.90;;;4.48;100.00;96436.28;5064353;28;20458;-81
2020/12/06 08:59:07;;;;;;;19.80;10.70;;;4.00;99.90;;;4.50;100.00;96440.31;5066732;28;20459;-81
2020/12/06 09:01:46;;;;;;;15.70;8.60;;;4.00;99.90;;;4.51;100.00;96441.88;5066347;28;20492;-81
2020/12/06 09:04:14;;;;;;;14.73;8.80;;;4.00;99.90;;;4.53;100.00;96445.09;5064368;28;20514;-80
2020/12/06 09:06:42;;;;;;;14.93;9.33;;;4.00;99.90;;;4.50;100.00;96450.66;5064184;28;20460;-81
2020/12/06 09:09:11;;;;;;;17.07;9.40;;;3.90;99.90;;;4.49;100.00;96456.81;5062678;28;20499;-81
2020/12/06 09:11:39;;;;;;;16.50;9.10;;;3.80;99.90;;;4.50;100.00;96466.19;5062709;28;20468;-80
2020/12/06 09:14:08;;;;;;;14.97;7.93;;;3.80;99.90;;;4.51;100.00;96475.53;5062325;28;20465;-80
2020/12/06 09:16:39;;;;;;;16.97;8.17;;;3.80;99.90;;;4.53;100.00;96480.53;5065429;28;20483;-81
2020/12/06 09:19:06;;;;;;;16.53;8.80;;;3.80;99.90;;;4.54;100.00;96480.34;5061898;28;20517;-80
2020/12/06 09:21:34;;;;;;;15.73;8.33;;;3.90;99.90;;;4.56;100.00;96480.97;5062759;28;20464;-81
2020/12/06 09:24:02;;;;;;;19.87;10.30;;;3.90;99.90;;;4.57;100.00;96476.59;5062664;28;20503;-79
2020/12/06 09:26:30;;;;;;;16.47;8.47;;;4.00;99.90;;;4.58;100.00;96463.44;5063429;28;20464;-81
2020/12/06 09:28:57;;;;;;;23.83;9.07;;;4.00;99.90;;;4.60;100.00;96457.28;5063755;28;20565;-81
2020/12/06 09:31:27;;;;;;;15.80;9.23;;;4.00;99.90;;;4.61;100.00;96456.31;5065297;28;20460;-81
2020/12/06 09:33:55;;;;;;;15.07;9.47;;;4.10;99.90;;;4.58;100.00;96463.44;5062704;28;20491;-81
2020/12/06 09:36:23;;;;;;;14.50;9.30;;;4.00;99.90;;;4.58;100.00;96460.84;5061705;28;21274;-81
2020/12/06 09:38:52;;;;;;;17.67;9.27;;;3.90;99.90;;;4.61;100.00;96446.75;5063549;28;20813;-80
2020/12/06 09:41:19;;;;;;;14.03;7.53;;;4.00;99.90;;;4.58;100.00;96440.16;5062593;28;20525;-81
2020/12/06 09:43:47;;;;;;;12.30;7.13;;;4.00;99.90;;;4.61;100.00;96430.41;5064549;28;20518;-81
2020/12/06 09:46:15;;;;;;;15.70;7.77;;;4.10;99.90;;;4.62;100.00;96416.50;5062138;28;20843;-81
2020/12/06 09:48:44;;;;;;;13.23;7.70;;;4.00;99.90;;;4.64;100.00;96410.13;5064010;28;20460;-81
2020/12/06 09:51:12;;;;;;;12.30;7.53;;;4.00;99.90;;;4.66;100.00;96428.06;5061654;28;20459;-81
2020/12/06 09:53:39;;;;;;;15.03;7.70;;;3.90;99.90;;;4.65;100.00;96431.66;5063717;28;20513;-80
2020/12/06 09:56:07;;;;;;;16.77;9.07;;;4.00;99.90;;;4.66;100.00;96433.22;5064181;28;20464;-81
2020/12/06 09:58:35;;;;;;;14.30;7.90;;;4.00;99.90;;;4.70;100.00;96429.28;5064599;28;20980;-81
2020/12/06 10:01:02;;;;;;;17.20;8.37;;;4.00;99.90;;;4.74;100.00;96446.03;5066399;28;20844;-81
2020/12/06 10:03:30;;;;;;;9.20;6.27;;;4.00;99.90;;;4.76;100.00;96433.69;5062311;28;20496;-80
2020/12/06 10:05:58;;;;;;;8.73;5.37;;;4.00;99.90;;;4.78;100.00;96442.88;5062357;28;20973;-81
2020/12/06 10:08:27;;;;;;;10.20;6.40;;;4.10;99.90;;;4.81;100.00;96449.47;5064218;28;20529;-80
2020/12/06 10:10:55;;;;;;;11.00;6.00;;;4.10;99.90;;;4.84;100.00;96441.31;5064027;28;20713;-81
2020/12/06 10:13:22;;;;;;;10.13;6.33;;;4.10;99.90;;;4.87;100.00;96423.59;5064991;28;20468;-81
2020/12/06 10:15:50;;;;;;;8.03;5.07;;;4.20;99.90;;;4.89;100.00;96433.78;5062613;28;21023;-81
2020/12/06 10:18:18;;;;;;;9.00;4.90;;;4.20;99.90;;;4.90;100.00;96437.94;5064733;28;20456;-81
2020/12/06 10:20:45;;;;;;;7.20;4.90;;;4.20;99.90;;;4.93;100.00;96440.94;5062318;28;20471;-81
2020/12/06 10:23:14;;;;;;;9.50;5.57;;;4.20;99.90;;;4.90;100.00;96445.72;5062215;28;20500;-80